Time;durP1;ratioP1;P1;durP2;ratioP2;P2;SDS_P1;SDS_P2;PMS_P1;PMS_P2;Temp;Humidity;BMP_temperature;BMP_pressure;BME280_temperature;BME280_humidity;BME280_pressure;Samples;Min_cycle;Max_cycle;Signal;HPM_P1;HPM_P2
2022/04/25 00:01:23;;;;;;;12.13;5.10;;;;;;;16.14;57.14;100285.31;1704108;83;26761;-63
2022/04/25 00:03:50;;;;;;;12.73;4.58;;;;;;;16.15;56.85;100278.83;1708277;83;25757;-64
2022/04/25 00:06:16;;;;;;;11.65;4.75;;;;;;;16.18;56.62;100283.37;1708608;84;27474;-63
2022/04/25 00:08:43;;;;;;;9.83;5.05;;;;;;;16.22;56.75;100285.23;1708370;83;25771;-63
2022/04/25 00:11:10;;;;;;;14.63;5.65;;;;;;;16.19;56.57;100286.42;1708277;83;25823;-63
2022/04/25 00:13:38;;;;;;;9.25;5.50;;;;;;;16.18;56.45;100300.18;1708387;84;26445;-63
2022/04/25 00:16:05;;;;;;;8.58;5.45;;;;;;;16.14;56.38;100307.02;1708357;84;25517;-63
2022/04/25 00:18:32;;;;;;;11.22;5.30;;;;;;;16.06;56.47;100310.11;1708378;83;28477;-63
2022/04/25 00:21:00;;;;;;;9.38;5.35;;;;;;;16.02;56.55;100307.95;1707822;83;25757;-63
2022/04/25 00:23:28;;;;;;;8.75;4.95;;;;;;;16.01;56.99;100311.69;1699741;83;25870;-63
2022/04/25 00:25:55;;;;;;;8.15;5.53;;;;;;;15.97;56.76;100320.70;1693872;83;25850;-63
2022/04/25 00:28:21;;;;;;;12.45;5.05;;;;;;;15.95;56.72;100318.19;1694058;84;25771;-63
2022/04/25 00:30:48;;;;;;;9.88;5.58;;;;;;;15.95;56.70;100311.41;1694125;84;27491;-63
2022/04/25 00:33:16;;;;;;;15.25;5.83;;;;;;;15.93;56.74;100317.52;1693895;83;25661;-63
2022/04/25 00:35:43;;;;;;;10.85;5.05;;;;;;;15.91;56.71;100318.20;1694254;83;25729;-63
2022/04/25 00:38:10;;;;;;;11.40;5.62;;;;;;;15.90;56.63;100314.33;1660101;86;27923;-63
2022/04/25 00:40:37;;;;;;;10.08;5.05;;;;;;;15.88;56.66;100310.95;1660455;86;25842;-63
2022/04/25 00:43:05;;;;;;;12.05;5.20;;;;;;;15.84;56.70;100306.41;1660220;86;27508;-63
2022/04/25 00:45:34;;;;;;;9.08;4.67;;;;;;;15.81;56.78;100301.34;1660249;86;26179;-63
2022/04/25 00:48:01;;;;;;;11.78;5.70;;;;;;;15.77;57.13;100294.08;1660250;86;25539;-63
2022/04/25 00:50:29;;;;;;;9.08;5.65;;;;;;;15.75;57.28;100293.41;1679614;84;25895;-63
2022/04/25 00:52:57;;;;;;;8.33;5.33;;;;;;;15.70;57.22;100284.13;1688797;84;25506;-63
2022/04/25 00:55:24;;;;;;;15.75;5.20;;;;;;;15.64;57.33;100281.63;1688703;84;27378;-63
2022/04/25 00:57:55;;;;;;;10.75;5.25;;;;;;;15.60;57.35;100286.58;1686183;84;25850;-63
2022/04/25 01:00:21;;;;;;;13.72;5.95;;;;;;;15.54;57.77;100286.45;1678732;84;25712;-63
2022/04/25 01:02:48;;;;;;;10.85;5.05;;;;;;;15.46;57.53;100285.48;1677072;84;25909;-63
2022/04/25 01:05:15;;;;;;;9.75;4.78;;;;;;;15.42;57.64;100286.03;1676828;85;25767;-63
2022/04/25 01:07:42;;;;;;;8.98;4.65;;;;;;;15.38;57.78;100289.61;1676885;85;27509;-62
2022/04/25 01:10:11;;;;;;;10.80;5.08;;;;;;;15.34;57.79;100305.39;1676768;85;25740;-63
2022/04/25 01:12:38;;;;;;;7.00;4.30;;;;;;;15.30;58.05;100313.53;1676966;85;25751;-63
2022/04/25 01:15:13;;;;;;;8.93;4.37;;;;;;;15.25;58.46;100332.70;1677022;85;25944;-63
2022/04/25 01:17:41;;;;;;;8.38;4.10;;;;;;;15.17;60.69;100356.11;1676884;85;25824;-63
2022/04/25 01:20:10;;;;;;;12.05;4.30;;;;;;;15.06;61.29;100353.78;1676992;85;27616;-63
2022/04/25 01:22:42;;;;;;;5.92;3.80;;;;;;;14.94;60.62;100357.39;1678863;85;25801;-63
2022/04/25 01:27:57;;;;;;;11.73;4.75;;;;;;;14.89;61.44;100363.86;1719166;83;27798;-63
2022/04/25 01:30:23;;;;;;;9.98;4.55;;;;;;;14.86;61.03;100345.23;1719236;83;25470;-63
2022/04/25 01:32:50;;;;;;;5.85;4.50;;;;;;;14.85;61.27;100332.22;1719017;83;27482;-63
2022/04/25 01:35:16;;;;;;;6.83;3.95;;;;;;;14.85;62.10;100354.38;1719086;83;25764;-63
2022/04/25 01:37:43;;;;;;;9.20;4.42;;;;;;;14.84;61.24;100341.36;1719141;83;25792;-63
2022/04/25 01:40:12;;;;;;;9.13;4.55;;;;;;;14.88;60.99;100347.27;1718960;83;27885;-63
2022/04/25 01:42:39;;;;;;;11.00;5.08;;;;;;;14.87;61.00;100357.77;1719229;83;25847;-63
2022/04/25 01:45:08;;;;;;;6.20;4.45;;;;;;;14.87;60.65;100357.77;1719015;83;27336;-63
2022/04/25 01:47:35;;;;;;;7.60;4.75;;;;;;;14.89;60.73;100362.50;1719243;83;25532;-63
2022/04/25 01:50:02;;;;;;;10.15;4.72;;;;;;;14.86;60.35;100350.66;1722489;83;25793;-63
2022/04/25 01:52:34;;;;;;;7.42;4.58;;;;;;;14.86;60.25;100354.22;1726706;82;25747;-63
2022/04/25 01:55:03;;;;;;;9.73;4.67;;;;;;;14.88;60.17;100355.92;1726504;83;25471;-63
2022/04/25 01:57:31;;;;;;;10.90;4.75;;;;;;;14.87;60.05;100360.47;1724167;83;27622;-63
2022/04/25 01:59:58;;;;;;;11.28;4.45;;;;;;;14.85;60.08;100354.38;1703704;83;25936;-63
2022/04/25 02:02:26;;;;;;;9.75;4.70;;;;;;;14.84;60.17;100346.78;1702282;84;26630;-62
2022/04/25 02:04:53;;;;;;;9.20;4.75;;;;;;;14.81;60.04;100355.23;1701098;84;25851;-62
2022/04/25 02:07:20;;;;;;;12.35;4.42;;;;;;;14.77;59.96;100352.56;1701213;84;25767;-62
2022/04/25 02:09:48;;;;;;;7.55;4.60;;;;;;;14.74;60.08;100345.30;1701182;84;27517;-63
2022/04/25 02:12:14;;;;;;;8.80;5.00;;;;;;;14.70;59.99;100341.58;1700969;84;25780;-62
2022/04/25 02:14:42;;;;;;;8.75;4.75;;;;;;;14.67;60.14;100340.55;1701165;84;25679;-63
2022/04/25 02:17:10;;;;;;;8.08;5.00;;;;;;;14.63;60.29;100332.44;1701317;83;25981;-62
2022/04/25 02:19:40;;;;;;;15.78;4.83;;;;;;;14.59;60.03;100343.78;1701257;83;25844;-62
2022/04/25 02:22:09;;;;;;;9.15;3.77;;;;;;;14.53;60.19;100341.25;1700947;83;28366;-62
2022/04/25 02:24:41;;;;;;;5.42;4.42;;;;;;;14.46;60.27;100360.55;1687637;85;25824;-62
2022/04/25 02:27:08;;;;;;;9.60;4.65;;;;;;;14.39;60.35;100360.39;1688243;85;25823;-62
2022/04/25 02:29:41;;;;;;;8.93;4.12;;;;;;;14.34;60.50;100363.61;1687880;85;25800;-63
2022/04/25 02:32:12;;;;;;;15.38;4.37;;;;;;;14.29;61.04;100371.41;1691666;82;25857;-63
2022/04/25 02:34:38;;;;;;;5.75;3.85;;;;;;;14.26;61.30;100367.67;1682402;85;27546;-62
2022/04/25 02:37:05;;;;;;;9.83;3.67;;;;;;;14.24;61.44;100355.69;1682597;85;27216;-62
2022/04/25 02:39:31;;;;;;;12.40;4.10;;;;;;;14.25;61.95;100363.28;1682750;85;25760;-62
2022/04/25 02:41:58;;;;;;;7.70;4.15;;;;;;;14.23;62.17;100359.89;1682763;85;25817;-62
2022/04/25 02:44:25;;;;;;;11.33;4.15;;;;;;;14.23;62.24;100366.66;1682741;85;25814;-62
2022/04/25 02:46:52;;;;;;;8.38;4.22;;;;;;;14.18;62.57;100367.69;1682604;84;27477;-62
2022/04/25 02:49:18;;;;;;;9.53;4.12;;;;;;;14.16;62.52;100361.59;1686021;83;26125;-62
2022/04/25 02:51:45;;;;;;;12.82;3.65;;;;;;;14.18;62.84;100364.98;1700645;83;25729;-63
2022/04/25 02:54:12;;;;;;;9.98;3.85;;;;;;;14.19;62.90;100366.16;1700953;83;25961;-62
2022/04/25 02:56:39;;;;;;;9.25;4.75;;;;;;;14.19;62.77;100370.21;1700996;84;25482;-63
2022/04/25 02:59:07;;;;;;;9.23;4.00;;;;;;;14.20;62.70;100362.44;1720200;83;27527;-63
2022/04/25 03:01:34;;;;;;;6.50;4.00;;;;;;;14.23;62.95;100365.30;1726335;83;25523;-63
2022/04/25 03:04:02;;;;;;;10.45;3.80;;;;;;;14.25;62.81;100364.63;1723752;83;25783;-62
2022/04/25 03:06:29;;;;;;;6.92;4.10;;;;;;;14.27;62.84;100369.86;1723867;83;25758;-63
2022/04/25 03:08:56;;;;;;;17.17;4.47;;;;;;;14.28;62.74;100369.71;1723923;83;25783;-62
2022/04/25 03:11:23;;;;;;;9.40;3.80;;;;;;;14.33;62.72;100375.45;1724034;83;28449;-62
2022/04/25 03:13:50;;;;;;;10.10;3.95;;;;;;;14.37;62.86;100382.22;1723938;83;25700;-62
2022/04/25 03:16:19;;;;;;;7.87;4.12;;;;;;;14.40;62.91;100377.80;1724073;83;25756;-63
2022/04/25 03:18:47;;;;;;;13.05;4.30;;;;;;;14.43;62.52;100381.19;1723787;82;25808;-63
2022/04/25 03:21:13;;;;;;;6.95;3.60;;;;;;;14.39;62.33;100381.52;1723825;83;25834;-63
2022/04/25 03:23:40;;;;;;;10.38;4.00;;;;;;;14.37;62.25;100378.16;1720488;83;27505;-62
2022/04/25 03:26:08;;;;;;;9.35;4.03;;;;;;;14.30;61.94;100381.19;1718792;83;25774;-62
2022/04/25 03:28:35;;;;;;;13.40;4.05;;;;;;;14.24;61.92;100375.11;1718996;83;25468;-62
2022/04/25 03:31:06;;;;;;;6.12;3.98;;;;;;;14.21;62.24;100381.72;1719035;83;26815;-62
2022/04/25 03:33:35;;;;;;;6.95;4.20;;;;;;;14.15;62.08;100389.16;1719144;82;25856;-62
2022/04/25 03:36:03;;;;;;;11.63;4.33;;;;;;;14.12;62.02;100388.66;1718903;82;27458;-63
2022/04/25 03:38:30;;;;;;;9.03;4.25;;;;;;;14.08;62.12;100387.64;1719016;83;25472;-62
2022/04/25 03:40:57;;;;;;;15.28;4.22;;;;;;;14.05;62.13;100384.42;1719257;82;25693;-62
2022/04/25 03:43:24;;;;;;;14.15;5.00;;;;;;;14.02;62.31;100386.97;1718927;82;26500;-62
2022/04/25 03:45:51;;;;;;;20.77;5.10;;;;;;;13.98;62.26;100383.41;1716363;82;25774;-62
2022/04/25 03:48:18;;;;;;;13.03;5.87;;;;;;;13.94;62.38;100386.93;1713498;82;27470;-62
2022/04/25 03:50:45;;;;;;;10.82;5.00;;;;;;;13.88;62.49;100372.73;1713726;83;25766;-62
2022/04/25 03:53:13;;;;;;;11.53;4.75;;;;;;;13.84;62.39;100383.57;1713549;83;25641;-62
2022/04/25 03:58:22;;;;;;;7.47;5.20;;;;;;;13.80;62.80;100391.17;1661494;83;25548;-62
2022/04/25 04:00:49;;;;;;;8.05;4.80;;;;;;;13.79;62.69;100390.83;1726199;83;27424;-62
2022/04/25 04:03:18;;;;;;;11.73;4.00;;;;;;;13.76;63.08;100395.20;1731027;82;25511;-62
2022/04/25 04:05:46;;;;;;;11.00;5.05;;;;;;;13.78;64.37;100395.89;1734280;82;26528;-62
2022/04/25 04:08:13;;;;;;;15.35;5.35;;;;;;;13.77;64.11;100395.03;1734184;82;25791;-62
2022/04/25 04:10:40;;;;;;;7.58;4.28;;;;;;;13.77;63.81;100393.67;1734498;82;25803;-62
2022/04/25 04:13:08;;;;;;;15.78;8.13;;;;;;;13.77;64.02;100407.20;1734101;82;28221;-63
2022/04/25 04:15:35;;;;;;;6.78;4.35;;;;;;;13.75;64.31;100406.53;1733997;82;25709;-62
2022/04/25 04:18:04;;;;;;;7.92;4.22;;;;;;;13.81;64.53;100414.98;1734153;82;25726;-63
2022/04/25 04:20:32;;;;;;;6.85;3.52;;;;;;;13.89;64.78;100414.50;1734373;82;26774;-63
2022/04/25 04:22:59;;;;;;;5.37;3.70;;;;;;;14.00;64.62;100425.98;1718638;82;25723;-63
2022/04/25 04:25:26;;;;;;;8.10;3.30;;;;;;;14.07;64.76;100419.75;1695579;84;27448;-62
2022/04/25 04:27:53;;;;;;;7.80;3.52;;;;;;;14.17;64.54;100423.63;1695316;84;25776;-62
2022/04/25 04:30:20;;;;;;;9.23;3.87;;;;;;;14.29;64.44;100427.36;1695332;84;25658;-63
2022/04/25 04:32:47;;;;;;;4.78;3.45;;;;;;;14.42;64.21;100420.09;1695231;84;26438;-62
2022/04/25 04:36:17;;;;;;;8.88;3.80;;;;;;;14.51;64.11;100417.22;1695602;84;25498;-62
2022/04/25 04:37:46;;;;;;;9.70;4.28;;;;;;;14.63;63.91;100411.43;1694390;84;27655;-63
2022/04/25 04:40:28;;;;;;;11.53;4.10;;;;;;;14.71;63.55;100406.89;1695222;84;25764;-62
2022/04/25 04:42:56;;;;;;;12.82;4.03;;;;;;;14.79;63.38;100403.83;1695366;84;25747;-63
2022/04/25 04:45:23;;;;;;;10.23;4.58;;;;;;;14.90;62.95;100410.73;1695596;84;25785;-63
2022/04/25 04:47:50;;;;;;;8.08;4.45;;;;;;;14.98;62.82;100414.77;1695445;84;25924;-63
2022/04/25 04:50:17;;;;;;;8.45;4.62;;;;;;;15.03;62.37;100424.59;1718672;82;27762;-63
2022/04/25 04:52:58;;;;;;;10.63;4.15;;;;;;;15.09;62.29;100421.17;1734036;82;25744;-62
2022/04/25 04:55:25;;;;;;;11.08;4.72;;;;;;;15.13;61.89;100409.47;1734223;82;25641;-62
2022/04/25 04:57:55;;;;;;;11.38;4.28;;;;;;;15.15;61.50;100403.37;1724136;82;25940;-63
2022/04/25 05:00:23;;;;;;;7.33;4.35;;;;;;;15.18;61.38;100409.28;1694832;84;25763;-63
2022/04/25 05:02:50;;;;;;;9.50;4.50;;;;;;;15.22;61.25;100407.06;1696495;84;27362;-63
2022/04/25 05:05:17;;;;;;;11.18;4.10;;;;;;;15.28;61.11;100410.94;1701353;84;25726;-63
2022/04/25 05:07:44;;;;;;;8.68;3.98;;;;;;;15.33;60.88;100413.95;1701397;83;25752;-62
2022/04/25 05:10:11;;;;;;;15.00;4.50;;;;;;;15.38;60.67;100421.55;1701344;83;25944;-63
2022/04/25 05:12:51;;;;;;;13.13;4.40;;;;;;;15.42;60.51;100419.67;1701244;84;25424;-63
2022/04/25 05:15:19;;;;;;;15.48;5.15;;;;;;;15.47;60.41;100417.78;1701237;84;29684;-63
2022/04/25 05:17:52;;;;;;;20.60;6.00;;;;;;;15.48;60.26;100408.14;1701222;84;25794;-63
2022/04/25 05:20:22;;;;;;;9.88;4.95;;;;;;;15.47;60.26;100398.81;1701555;83;25526;-63
2022/04/25 05:22:51;;;;;;;12.90;5.20;;;;;;;15.49;60.23;100403.06;1699712;84;25787;-63
2022/04/25 05:25:21;;;;;;;13.75;5.22;;;;;;;15.54;60.27;100395.75;1696686;84;25815;-63
2022/04/25 05:27:52;;;;;;;9.58;5.47;;;;;;;15.58;60.41;100394.35;1696517;83;28126;-63
2022/04/25 05:30:20;;;;;;;7.67;4.58;;;;;;;15.63;60.41;100381.61;1696603;84;25780;-63
2022/04/25 05:32:57;;;;;;;9.63;5.53;;;;;;;15.69;60.33;100378.17;1696494;83;25768;-63
2022/04/25 05:35:27;;;;;;;11.12;4.97;;;;;;;15.74;60.15;100365.44;1696869;83;25978;-63
2022/04/25 05:37:55;;;;;;;7.95;5.08;;;;;;;15.75;60.11;100367.13;1696476;83;25732;-63
2022/04/25 05:40:23;;;;;;;12.18;7.25;;;;;;;15.81;59.95;100363.19;1696676;84;27462;-63
2022/04/25 05:42:52;;;;;;;13.15;5.75;;;;;;;15.89;59.82;100362.33;1696482;84;25965;-63
2022/04/25 05:45:22;;;;;;;14.13;5.60;;;;;;;15.98;59.72;100351.41;1696726;83;25725;-63
2022/04/25 05:47:51;;;;;;;12.93;5.80;;;;;;;16.06;59.60;100350.81;1696512;84;25764;-63
2022/04/25 05:53:04;;;;;;;10.90;4.20;;;;;;;16.32;59.29;100343.30;1683966;84;26900;-63
2022/04/25 05:55:33;;;;;;;8.50;4.42;;;;;;;16.36;58.46;100350.06;1700984;84;25762;-63
2022/04/25 05:58:02;;;;;;;15.65;5.05;;;;;;;16.39;58.01;100341.53;1708771;83;25885;-63
2022/04/25 06:00:30;;;;;;;12.28;4.75;;;;;;;16.39;57.59;100338.81;1726896;83;25784;-63
2022/04/25 06:03:00;;;;;;;10.50;4.60;;;;;;;16.45;57.61;100332.63;1725890;83;25532;-63
2022/04/25 06:05:27;;;;;;;11.57;4.62;;;;;;;16.51;57.65;100321.05;1724042;83;28127;-63
2022/04/25 06:07:55;;;;;;;16.05;4.37;;;;;;;16.52;57.49;100319.16;1723736;83;25674;-63
2022/04/25 06:10:25;;;;;;;11.38;4.17;;;;;;;16.55;57.55;100316.91;1723912;83;25658;-63
2022/04/25 06:12:54;;;;;;;14.35;4.72;;;;;;;16.62;57.52;100299.89;1723873;83;25798;-63
2022/04/25 06:15:26;;;;;;;6.62;3.87;;;;;;;16.70;57.65;100299.80;1724208;83;25464;-64
2022/04/25 06:17:55;;;;;;;10.53;3.85;;;;;;;16.81;57.67;100299.83;1724251;83;28252;-63
2022/04/25 06:20:23;;;;;;;10.48;3.92;;;;;;;16.89;57.71;100299.72;1723991;83;26092;-63
2022/04/25 06:23:04;;;;;;;7.10;3.47;;;;;;;17.03;57.64;100306.20;1722253;83;25778;-63
2022/04/25 06:25:31;;;;;;;4.65;3.15;;;;;;;17.16;57.19;100308.23;1719163;82;26634;-63
2022/04/25 06:28:00;;;;;;;7.60;3.22;;;;;;;17.28;56.94;100314.87;1719138;83;25741;-63
2022/04/25 06:30:29;;;;;;;4.87;2.90;;;;;;;17.36;56.75;100316.61;1718982;82;27635;-63
2022/04/25 06:32:58;;;;;;;8.13;3.60;;;;;;;17.44;56.61;100318.37;1719176;82;25726;-63
2022/04/25 06:35:28;;;;;;;7.50;3.65;;;;;;;17.48;56.43;100315.08;1719003;83;26508;-63
2022/04/25 06:37:55;;;;;;;5.47;3.27;;;;;;;17.49;56.16;100315.91;1718777;82;25806;-63
2022/04/25 06:40:23;;;;;;;8.38;3.22;;;;;;;17.52;56.10;100312.31;1719207;82;25726;-64
2022/04/25 06:42:51;;;;;;;6.78;3.40;;;;;;;17.52;55.84;100306.88;1719221;82;27441;-63
2022/04/25 06:45:18;;;;;;;6.30;3.25;;;;;;;17.57;55.80;100301.35;1718839;82;25721;-63
2022/04/25 06:47:45;;;;;;;7.03;3.10;;;;;;;17.59;55.66;100302.84;1719040;83;25717;-63
2022/04/25 06:50:12;;;;;;;17.60;3.35;;;;;;;17.62;55.55;100307.90;1715867;82;26797;-63
2022/04/25 06:52:40;;;;;;;10.63;3.67;;;;;;;17.58;55.64;100310.67;1713397;83;25732;-63
2022/04/25 06:55:08;;;;;;;12.58;3.87;;;;;;;17.59;55.72;100313.72;1713644;83;27501;-63
2022/04/25 06:57:35;;;;;;;9.48;3.35;;;;;;;17.61;55.89;100318.98;1714966;83;25738;-63
2022/04/25 07:00:05;;;;;;;10.30;3.70;;;;;;;17.63;55.94;100334.06;1724078;83;25666;-63
2022/04/25 07:02:31;;;;;;;7.80;3.65;;;;;;;17.56;55.86;100350.84;1723861;83;26511;-64
2022/04/25 07:04:58;;;;;;;16.05;7.15;;;;;;;17.49;56.02;100362.13;1730067;82;25503;-63
2022/04/25 07:07:25;;;;;;;9.03;3.45;;;;;;;17.49;56.09;100341.24;1731234;82;26915;-64
2022/04/25 07:09:52;;;;;;;13.18;4.80;;;;;;;17.51;56.09;100333.73;1731045;82;25967;-63
2022/04/25 07:12:18;;;;;;;10.70;3.12;;;;;;;17.57;55.97;100348.95;1731049;82;25953;-64
2022/04/25 07:14:46;;;;;;;7.80;3.58;;;;;;;17.56;56.04;100349.98;1731140;82;25798;-64
2022/04/25 07:17:13;;;;;;;11.43;3.47;;;;;;;17.52;56.28;100344.95;1731314;82;25716;-64
2022/04/25 07:19:40;;;;;;;15.55;4.12;;;;;;;17.55;56.25;100337.41;1731170;82;27474;-63
2022/04/25 07:30:25;;;;;;;8.00;3.10;;;;;;;17.63;56.28;100338.14;1644674;87;25860;-64
2022/04/25 07:32:52;;;;;;;9.08;3.40;;;;;;;17.66;56.19;100343.70;1644559;86;28592;-64
2022/04/25 07:35:21;;;;;;;10.70;3.70;;;;;;;17.67;56.17;100343.51;1644540;86;25723;-64
2022/04/25 07:37:47;;;;;;;20.23;4.22;;;;;;;17.71;56.53;100346.68;1644394;86;25776;-64
2022/04/25 07:40:15;;;;;;;15.65;3.47;;;;;;;17.71;56.72;100367.61;1644719;86;25988;-64
2022/04/25 07:42:42;;;;;;;8.90;3.87;;;;;;;17.66;56.78;100400.30;1644869;87;26407;-63
2022/04/25 07:45:10;;;;;;;13.38;6.45;;;;;;;17.60;57.32;100419.29;1644318;87;27556;-63
2022/04/25 07:47:42;;;;;;;7.62;4.85;;;;;;;17.42;57.40;100435.50;1639570;87;25764;-63
2022/04/25 07:50:08;;;;;;;8.53;3.98;;;;;;;17.33;58.49;100426.59;1662411;84;25685;-63
2022/04/25 07:52:35;;;;;;;7.65;3.95;;;;;;;17.24;58.99;100417.38;1646611;87;26677;-63
2022/04/25 07:55:02;;;;;;;6.85;3.60;;;;;;;17.14;59.96;100421.72;1666084;86;25648;-63
2022/04/25 07:57:30;;;;;;;5.12;3.52;;;;;;;17.03;60.09;100406.73;1657287;85;27481;-63
2022/04/25 07:59:57;;;;;;;5.80;3.42;;;;;;;17.00;59.62;100401.17;1685805;85;25733;-63
2022/04/25 08:02:23;;;;;;;8.93;3.02;;;;;;;17.07;59.65;100396.33;1685990;85;25678;-63
2022/04/25 08:04:51;;;;;;;7.83;3.47;;;;;;;17.15;59.75;100393.52;1689102;84;25909;-63
2022/04/25 08:07:17;;;;;;;4.90;3.25;;;;;;;17.22;60.53;100389.00;1689526;84;25944;-63
2022/04/25 08:09:44;;;;;;;7.67;3.37;;;;;;;17.21;60.39;100381.38;1689486;84;27526;-64
2022/04/25 08:17:59;;;;;;;7.40;3.70;;;;;;;17.49;59.93;100358.91;1689647;84;25961;-63
2022/04/25 08:20:36;;;;;;;5.30;3.40;;;;;;;17.56;59.75;100354.06;1689674;84;25689;-63
2022/04/25 08:23:11;;;;;;;8.20;3.52;;;;;;;17.56;59.76;100371.73;1688239;84;27474;-62
2022/04/25 08:25:39;;;;;;;11.00;3.87;;;;;;;17.56;59.94;100391.63;1686845;85;25728;-62
2022/04/25 08:28:08;;;;;;;9.75;5.03;;;;;;;17.48;59.86;100402.63;1686889;85;25750;-63
2022/04/25 08:30:35;;;;;;;12.65;5.00;;;;;;;17.42;59.85;100410.16;1686800;85;25857;-63
2022/04/25 08:33:02;;;;;;;17.35;6.80;;;;;;;17.40;60.00;100414.44;1686727;85;25809;-63
2022/04/25 08:35:29;;;;;;;20.75;6.15;;;;;;;17.42;60.23;100403.37;1686975;85;27610;-63
2022/04/25 08:37:56;;;;;;;22.40;5.72;;;;;;;17.45;61.25;100393.48;1686652;85;26636;-63
2022/04/25 08:40:23;;;;;;;22.10;6.78;;;;;;;17.48;61.74;100385.78;1686994;85;25807;-63
2022/04/25 08:42:53;;;;;;;16.60;5.90;;;;;;;17.44;61.91;100377.66;1686877;85;25786;-63
2022/04/25 08:45:22;;;;;;;17.32;6.30;;;;;;;17.39;62.67;100374.69;1686860;85;26035;-63
2022/04/25 08:48:00;;;;;;;11.30;5.20;;;;;;;17.47;62.93;100369.14;1686523;85;28534;-63
2022/04/25 08:50:29;;;;;;;16.20;5.35;;;;;;;17.66;63.18;100349.98;1686282;85;25836;-63
2022/04/25 08:52:58;;;;;;;14.90;5.95;;;;;;;17.92;62.84;100330.03;1686764;84;25507;-63
2022/04/25 08:55:29;;;;;;;14.60;6.35;;;;;;;18.15;63.54;100311.63;1686859;85;26453;-63
2022/04/25 08:57:59;;;;;;;11.80;4.80;;;;;;;18.43;64.09;100297.16;1687678;84;25627;-63
2022/04/25 09:00:26;;;;;;;8.23;4.78;;;;;;;18.75;63.46;100283.94;1689343;84;27491;-62
2022/04/25 09:02:54;;;;;;;7.60;4.70;;;;;;;19.08;62.49;100292.80;1689552;84;26004;-63
2022/04/25 09:05:21;;;;;;;9.50;4.28;;;;;;;19.51;61.62;100301.22;1682224;84;25720;-63
2022/04/25 09:07:48;;;;;;;13.45;4.80;;;;;;;19.89;60.79;100300.34;1679916;85;26769;-63
2022/04/25 09:10:17;;;;;;;9.10;4.78;;;;;;;20.12;58.59;100304.85;1679793;84;25775;-63
2022/04/25 09:12:49;;;;;;;7.20;4.30;;;;;;;20.21;58.26;100300.54;1679868;85;28155;-63
2022/04/25 09:15:22;;;;;;;6.37;4.20;;;;;;;20.13;56.15;100297.48;1680002;84;25830;-63
2022/04/25 09:17:51;;;;;;;10.43;5.37;;;;;;;20.03;55.34;100306.66;1680039;84;25829;-63
2022/04/25 09:20:19;;;;;;;12.15;5.72;;;;;;;19.92;56.05;100316.29;1716823;83;25623;-63
2022/04/25 09:22:46;;;;;;;13.05;5.12;;;;;;;19.79;55.59;100329.37;1713280;83;26104;-62
2022/04/25 09:25:16;;;;;;;9.65;4.42;;;;;;;19.63;55.42;100332.81;1665559;85;27509;-63
2022/04/25 09:27:46;;;;;;;9.45;5.03;;;;;;;19.52;55.67;100345.19;1665798;85;25735;-63
2022/04/25 09:30:21;;;;;;;9.65;4.83;;;;;;;19.39;55.83;100352.81;1665438;85;25747;-63
2022/04/25 09:32:50;;;;;;;7.53;3.85;;;;;;;19.30;55.88;100366.30;1666121;86;25923;-63
2022/04/25 09:35:42;;;;;;;4.90;3.22;;;;;;;19.22;55.77;100404.13;1665670;85;25775;-63
2022/04/25 09:38:09;;;;;;;9.85;4.40;;;;;;;19.12;54.99;100428.19;1665830;85;27472;-63
2022/04/25 09:40:40;;;;;;;8.55;3.67;;;;;;;18.96;54.28;100433.96;1665668;85;25783;-63
2022/04/25 09:43:12;;;;;;;6.75;4.00;;;;;;;18.88;54.72;100404.94;1666000;86;25508;-63
2022/04/25 09:45:43;;;;;;;8.68;5.05;;;;;;;18.98;55.12;100370.02;1665588;85;25741;-63
2022/04/25 09:48:16;;;;;;;11.78;4.25;;;;;;;19.46;55.20;100341.06;1665539;85;25910;-63
2022/04/25 09:50:46;;;;;;;9.48;5.22;;;;;;;20.21;55.01;100330.07;1674599;85;27537;-63
2022/04/25 09:53:13;;;;;;;9.90;4.75;;;;;;;20.79;54.32;100328.52;1669363;85;25795;-64
2022/04/25 09:55:40;;;;;;;7.42;4.25;;;;;;;21.16;53.74;100312.39;1677090;84;25766;-64
2022/04/25 09:58:22;;;;;;;7.72;3.42;;;;;;;21.96;52.75;100291.06;1675966;84;25974;-64
2022/04/25 10:00:53;;;;;;;10.00;2.70;;;;;;;22.94;50.35;100273.52;1677124;85;25707;-64
2022/04/25 10:03:34;;;;;;;8.13;2.75;;;;;;;23.49;46.66;100262.13;1677113;85;27533;-64
2022/04/25 10:06:03;;;;;;;7.20;3.37;;;;;;;23.30;45.85;100258.08;1671711;85;25812;-64
2022/04/25 10:08:36;;;;;;;7.00;2.60;;;;;;;23.17;45.82;100253.59;1671630;84;25840;-64
2022/04/25 10:11:06;;;;;;;6.33;2.20;;;;;;;22.95;45.44;100237.63;1655360;83;26023;-64
2022/04/25 10:13:35;;;;;;;7.25;2.50;;;;;;;23.03;44.68;100230.98;1653924;86;25895;-64
2022/04/25 10:16:03;;;;;;;8.63;3.10;;;;;;;23.48;45.15;100220.66;1653717;86;28495;-64
2022/04/25 10:18:31;;;;;;;11.15;2.65;;;;;;;24.49;42.95;100214.23;1653703;86;25827;-64
2022/04/25 10:21:01;;;;;;;12.78;2.83;;;;;;;25.12;40.77;100221.28;1653510;86;25777;-64
2022/04/25 10:23:28;;;;;;;19.20;3.12;;;;;;;25.18;39.96;100223.04;1670241;85;25789;-64
2022/04/25 10:25:58;;;;;;;7.70;2.40;;;;;;;25.21;39.80;100216.20;1681110;85;25967;-64
2022/04/25 10:28:36;;;;;;;12.45;2.05;;;;;;;25.41;39.77;100211.09;1681627;85;27599;-65
2022/04/25 10:31:26;;;;;;;8.58;2.02;;;;;;;25.54;38.23;100200.86;1681174;85;25732;-64
2022/04/25 10:33:58;;;;;;;13.48;1.85;;;;;;;25.57;36.13;100193.45;1681206;85;25797;-64
2022/04/25 10:36:42;;;;;;;20.80;2.70;;;;;;;25.71;36.70;100191.19;1681150;85;26645;-64
2022/04/25 10:39:27;;;;;;;12.43;3.40;;;;;;;26.04;35.30;100182.61;1681139;85;25694;-64
2022/04/25 10:44:50;;;;;;;8.00;2.10;;;;;;;27.59;33.19;100166.41;1681231;85;25509;-64
2022/04/25 10:47:24;;;;;;;7.03;1.77;;;;;;;28.16;32.21;100155.17;1681075;85;25786;-64
2022/04/25 10:50:00;;;;;;;10.65;1.70;;;;;;;28.63;32.43;100158.13;1681205;85;25820;-64
2022/04/25 10:55:23;;;;;;;10.03;2.05;;;;;;;29.18;31.72;100155.22;1681557;83;27529;-64
2022/04/25 10:58:07;;;;;;;;;;;;;;;29.89;30.12;100152.70;1683701;84;25830;-64
2022/04/25 11:00:45;;;;;;;6.67;2.35;;;;;;;30.16;29.68;100161.25;1681418;85;25794;-64
2022/04/25 11:03:18;;;;;;;4.90;1.90;;;;;;;30.78;29.53;100151.81;1681636;85;26563;-64
2022/04/25 11:05:50;;;;;;;8.23;2.15;;;;;;;31.13;28.63;100145.77;1671345;84;26037;-64
2022/04/25 11:08:23;;;;;;;4.80;1.65;;;;;;;30.77;28.71;100151.00;1665654;86;27506;-64
2022/04/25 11:11:18;;;;;;;12.20;1.72;;;;;;;30.64;29.18;100158.02;1665615;86;25730;-64
2022/04/25 11:14:01;;;;;;;6.90;1.90;;;;;;;30.25;29.18;100149.84;1665580;86;25791;-64
2022/04/25 11:16:26;;;;;;;4.40;1.80;;;;;;;30.62;29.18;100139.42;1665797;85;25786;-64
2022/04/25 11:19:21;;;;;;;3.90;1.85;;;;;;;30.62;28.32;100140.00;1665606;85;25805;-64
2022/04/25 11:21:55;;;;;;;8.00;1.82;;;;;;;30.56;29.12;100140.00;1653682;84;28395;-64
2022/04/25 11:24:32;;;;;;;8.70;1.52;;;;;;;30.32;29.34;100137.61;1712831;83;25527;-64
2022/04/25 11:27:02;;;;;;;4.20;1.82;;;;;;;29.70;27.43;100135.81;1677278;85;25687;-64
2022/04/25 11:29:29;;;;;;;5.15;2.05;;;;;;;28.49;28.92;100126.84;1676916;85;25935;-65
2022/04/25 11:32:32;;;;;;;5.12;2.30;;;;;;;27.75;29.95;100122.58;1677126;85;25864;-63
2022/04/25 11:35:02;;;;;;;6.67;1.95;;;;;;;27.34;30.42;100125.86;1676845;85;28527;-64
2022/04/25 11:37:32;;;;;;;8.80;2.25;;;;;;;26.69;31.35;100124.96;1677066;85;25819;-64
2022/04/25 11:40:07;;;;;;;7.85;2.12;;;;;;;26.40;32.01;100126.59;1677169;85;25777;-64
2022/04/25 11:42:36;;;;;;;8.50;1.87;;;;;;;26.12;32.44;100124.84;1677393;85;25897;-64
2022/04/25 11:45:05;;;;;;;5.15;1.80;;;;;;;25.86;32.85;100118.44;1677058;85;25687;-64
2022/04/25 11:47:33;;;;;;;9.25;1.95;;;;;;;25.52;33.59;100114.34;1677351;85;28399;-64
2022/04/25 11:50:07;;;;;;;5.90;1.80;;;;;;;25.15;34.02;100121.70;1683786;84;25657;-64
2022/04/25 11:55:54;;;;;;;7.62;2.37;;;;;;;24.74;34.78;100124.58;1654176;84;25837;-64
2022/04/25 11:58:29;;;;;;;11.12;2.35;;;;;;;24.46;34.78;100128.97;1663029;85;25821;-64
2022/04/25 12:00:56;;;;;;;12.15;2.27;;;;;;;24.28;35.24;100119.52;1679878;84;27523;-64
2022/04/25 12:03:24;;;;;;;5.35;2.40;;;;;;;24.12;35.48;100119.73;1679742;85;25726;-64